createdAt,value
2019-02-04T00:00:08.470Z,14.75
2019-02-04T00:02:37.266Z,12.58
2019-02-04T00:05:06.451Z,18.42
2019-02-04T00:07:35.175Z,15.55
2019-02-04T00:10:05.772Z,13.65
2019-02-04T00:12:34.638Z,11.00
2019-02-04T00:15:03.357Z,12.55
2019-02-04T00:17:32.066Z,11.90
2019-02-04T00:20:00.798Z,15.40
2019-02-04T00:22:29.490Z,11.65
2019-02-04T00:24:58.348Z,13.43
2019-02-04T00:27:27.179Z,11.75
2019-02-04T00:29:55.944Z,9.18
2019-02-04T00:32:24.862Z,8.48
2019-02-04T00:34:53.607Z,10.58
2019-02-04T00:37:22.409Z,9.75
2019-02-04T00:39:51.171Z,11.80
2019-02-04T00:42:20.016Z,14.63
2019-02-04T00:44:48.731Z,10.03
2019-02-04T00:47:19.875Z,10.15
2019-02-04T00:49:48.726Z,10.32
2019-02-04T00:52:17.530Z,9.55
2019-02-04T00:54:46.246Z,13.05
2019-02-04T00:57:14.990Z,11.12
2019-02-04T00:59:43.714Z,11.25
2019-02-04T01:02:12.913Z,14.53
2019-02-04T01:04:41.754Z,11.20
2019-02-04T01:07:10.546Z,11.75
2019-02-04T01:09:39.288Z,10.90
2019-02-04T01:12:08.027Z,8.80
2019-02-04T01:14:36.888Z,11.80
2019-02-04T01:17:05.629Z,11.60
2019-02-04T01:19:34.444Z,8.90
2019-02-04T01:22:03.210Z,9.25
2019-02-04T01:24:31.991Z,10.55
2019-02-04T01:27:00.847Z,13.05
2019-02-04T01:29:29.630Z,10.28
2019-02-04T01:31:58.384Z,12.33
2019-02-04T01:34:27.142Z,15.25
2019-02-04T01:36:55.918Z,11.33
2019-02-04T01:39:24.681Z,12.60
2019-02-04T01:41:53.397Z,14.25
2019-02-04T01:44:24.414Z,11.10
2019-02-04T01:46:53.506Z,9.65
2019-02-04T01:49:22.267Z,14.33
2019-02-04T01:51:51.011Z,12.20
2019-02-04T01:54:19.814Z,16.55
2019-02-04T01:56:48.598Z,14.25
2019-02-04T01:59:17.485Z,10.32
2019-02-04T02:01:46.570Z,12.15
2019-02-04T02:04:15.341Z,12.28
2019-02-04T02:06:44.059Z,11.70
2019-02-04T02:09:24.129Z,12.65
2019-02-04T02:11:52.941Z,10.95
2019-02-04T02:14:22.040Z,8.70
2019-02-04T02:16:50.787Z,13.18
2019-02-04T02:19:19.530Z,11.70
2019-02-04T02:21:48.406Z,14.28
2019-02-04T02:24:17.127Z,12.10
2019-02-04T02:26:45.853Z,11.10
2019-02-04T02:29:14.877Z,14.15
2019-02-04T02:32:02.919Z,11.85
2019-02-04T02:34:31.819Z,12.50
2019-02-04T02:37:00.643Z,10.30
2019-02-04T02:39:30.552Z,12.35
2019-02-04T02:41:59.386Z,10.98
2019-02-04T02:44:28.234Z,10.08
2019-02-04T02:46:57.025Z,11.45
2019-02-04T02:49:25.769Z,13.13
2019-02-04T02:51:54.495Z,10.60
2019-02-04T02:54:23.315Z,10.43
2019-02-04T02:56:52.222Z,14.60
2019-02-04T02:59:20.963Z,13.65
2019-02-04T03:01:51.083Z,11.97
2019-02-04T03:04:19.890Z,9.95
2019-02-04T03:06:48.602Z,11.95
2019-02-04T03:09:17.403Z,12.65
2019-02-04T03:11:46.493Z,13.75
2019-02-04T03:14:15.222Z,11.97
2019-02-04T03:16:43.927Z,9.65
2019-02-04T03:19:12.686Z,11.97
2019-02-04T03:21:41.452Z,14.35
2019-02-04T03:24:10.281Z,11.10
2019-02-04T03:26:38.996Z,14.10
2019-02-04T03:29:07.691Z,14.55
2019-02-04T03:31:39.283Z,10.35
2019-02-04T03:34:06.922Z,12.15
2019-02-04T03:36:35.657Z,9.43
2019-02-04T03:39:07.301Z,13.32
2019-02-04T03:41:36.022Z,10.45
2019-02-04T03:44:04.787Z,13.50
2019-02-04T03:46:33.632Z,11.93
2019-02-04T03:49:02.419Z,7.80
2019-02-04T03:51:31.169Z,13.45
2019-02-04T03:54:00.390Z,12.47
2019-02-04T03:56:29.110Z,9.50
2019-02-04T03:58:57.855Z,9.88
2019-02-04T04:01:26.643Z,9.70
2019-02-04T04:03:55.372Z,11.00
2019-02-04T04:06:24.134Z,9.23
2019-02-04T04:08:53.117Z,11.95
2019-02-04T04:11:21.867Z,9.18
2019-02-04T04:13:50.588Z,10.82
2019-02-04T04:16:19.462Z,10.08
2019-02-04T04:18:48.202Z,9.40
2019-02-04T04:21:17.019Z,12.18
2019-02-04T04:23:45.926Z,8.65
2019-02-04T04:26:14.747Z,5.80
2019-02-04T04:28:43.496Z,6.87
2019-02-04T04:31:12.182Z,8.43
2019-02-04T04:33:41.002Z,10.13
2019-02-04T04:36:11.994Z,9.70
2019-02-04T04:38:41.124Z,7.70
2019-02-04T04:41:09.908Z,8.53
2019-02-04T04:43:38.646Z,10.08
2019-02-04T04:46:07.454Z,6.60
2019-02-04T04:48:37.034Z,11.78
2019-02-04T04:51:05.738Z,9.90
2019-02-04T04:53:34.781Z,7.05
2019-02-04T04:56:03.525Z,10.35
2019-02-04T04:58:32.350Z,8.45
2019-02-04T05:01:01.188Z,8.75
2019-02-04T05:03:29.991Z,8.70
2019-02-04T05:05:58.685Z,11.35
2019-02-04T05:08:27.778Z,13.65
2019-02-04T05:10:56.550Z,9.85
2019-02-04T05:13:25.292Z,13.50
2019-02-04T05:15:54.018Z,9.65
2019-02-04T05:18:22.754Z,11.90
2019-02-04T05:20:51.548Z,13.75
2019-02-04T05:23:20.698Z,12.63
2019-02-04T05:25:49.429Z,12.43
2019-02-04T05:28:18.132Z,11.90
2019-02-04T05:30:46.834Z,9.93
2019-02-04T05:33:15.590Z,11.33
2019-02-04T05:35:44.378Z,15.55
2019-02-04T05:38:13.538Z,12.05
2019-02-04T05:40:43.176Z,10.78
2019-02-04T05:43:12.102Z,11.75
2019-02-04T05:45:40.878Z,8.00
2019-02-04T05:48:09.661Z,11.25
2019-02-04T05:50:38.447Z,10.43
2019-02-04T05:53:07.569Z,11.85
2019-02-04T05:55:36.288Z,13.83
2019-02-04T05:58:05.163Z,14.87
2019-02-04T06:00:43.358Z,11.88
2019-02-04T06:03:12.159Z,8.63
2019-02-04T06:05:41.638Z,12.75
2019-02-04T06:08:10.447Z,11.83
2019-02-04T06:10:39.246Z,10.80
2019-02-04T06:13:07.960Z,7.97
2019-02-04T06:15:36.705Z,9.85
2019-02-04T06:18:05.663Z,9.13
2019-02-04T06:20:34.821Z,11.78
2019-02-04T06:23:03.593Z,12.03
2019-02-04T06:25:32.374Z,10.35
2019-02-04T06:28:04.072Z,10.78
2019-02-04T06:30:32.838Z,9.75
2019-02-04T06:33:01.560Z,12.88
2019-02-04T06:35:30.557Z,11.10
2019-02-04T06:37:59.324Z,7.47
2019-02-04T06:40:28.140Z,10.90
2019-02-04T06:42:56.970Z,8.48
2019-02-04T06:45:25.708Z,7.30
2019-02-04T06:47:54.506Z,8.25
2019-02-04T06:50:23.675Z,7.92
2019-02-04T06:52:52.450Z,12.88
2019-02-04T06:55:24.195Z,10.48
2019-02-04T06:57:54.281Z,7.87
2019-02-04T07:00:25.079Z,10.32
2019-02-04T07:02:53.814Z,10.25
2019-02-04T07:05:22.539Z,8.90
2019-02-04T07:07:51.358Z,8.13
2019-02-04T07:10:21.622Z,8.33
2019-02-04T07:12:50.347Z,13.60
2019-02-04T07:15:19.135Z,9.35
2019-02-04T07:17:47.906Z,9.13
2019-02-04T07:20:22.235Z,8.43
2019-02-04T07:22:53.923Z,10.00
2019-02-04T07:25:23.601Z,6.80
2019-02-04T07:27:52.386Z,10.18
2019-02-04T07:30:23.068Z,10.50
2019-02-04T07:32:52.261Z,9.78
2019-02-04T07:35:21.055Z,7.12
2019-02-04T07:37:49.934Z,12.80
2019-02-04T07:40:20.820Z,9.98
2019-02-04T07:42:49.951Z,10.30
2019-02-04T07:45:18.758Z,10.63
2019-02-04T07:47:47.855Z,7.65
2019-02-04T07:50:16.744Z,10.38
2019-02-04T07:52:45.474Z,9.73
2019-02-04T07:55:14.304Z,15.88
2019-02-04T07:57:43.028Z,13.28
2019-02-04T08:00:17.657Z,12.37
2019-02-04T08:02:46.885Z,19.45
2019-02-04T08:05:15.668Z,11.03
2019-02-04T08:07:44.396Z,10.00
2019-02-04T08:10:13.244Z,10.38
2019-02-04T08:12:41.958Z,9.98
2019-02-04T08:15:15.890Z,12.18
2019-02-04T08:17:44.650Z,10.32
2019-02-04T08:20:15.556Z,11.45
2019-02-04T08:22:44.279Z,12.10
2019-02-04T08:25:13.490Z,8.95
2019-02-04T08:27:42.351Z,10.63
2019-02-04T08:30:20.706Z,13.40
2019-02-04T08:32:49.474Z,7.60
2019-02-04T08:35:18.171Z,9.98
2019-02-04T08:37:46.948Z,10.78
2019-02-04T08:40:18.106Z,13.65
2019-02-04T08:42:46.889Z,7.47
2019-02-04T08:45:16.023Z,9.08
2019-02-04T08:47:44.892Z,8.23
2019-02-04T08:50:15.757Z,7.35
2019-02-04T08:52:44.460Z,8.98
2019-02-04T08:55:13.287Z,9.15
2019-02-04T08:57:42.672Z,8.93
2019-02-04T09:00:14.676Z,14.98
2019-02-04T09:02:43.380Z,6.62
2019-02-04T09:05:12.786Z,7.58
2019-02-04T09:07:41.579Z,8.50
2019-02-04T09:10:14.830Z,8.85
2019-02-04T09:12:42.406Z,8.80
2019-02-04T09:15:12.339Z,10.00
2019-02-04T09:17:41.133Z,9.88
2019-02-04T09:20:11.618Z,12.78
2019-02-04T09:22:40.496Z,11.88
2019-02-04T09:25:12.076Z,9.05
2019-02-04T09:27:40.970Z,10.72
2019-02-04T09:30:19.360Z,8.03
2019-02-04T09:32:51.079Z,12.95
2019-02-04T09:35:23.483Z,8.10
2019-02-04T09:37:53.559Z,7.87
2019-02-04T09:40:25.034Z,10.15
2019-02-04T09:42:53.865Z,10.08
2019-02-04T09:45:25.463Z,9.13
2019-02-04T09:47:53.178Z,8.65
2019-02-04T09:50:22.687Z,8.15
2019-02-04T09:52:51.463Z,9.63
2019-02-04T09:55:22.647Z,12.10
2019-02-04T09:57:51.425Z,7.70
2019-02-04T10:00:22.550Z,8.08
2019-02-04T10:02:51.307Z,8.43
2019-02-04T10:05:20.190Z,9.23
2019-02-04T10:07:48.946Z,8.48
2019-02-04T10:10:19.874Z,9.43
2019-02-04T10:12:48.696Z,10.50
2019-02-04T10:15:20.126Z,9.95
2019-02-04T10:17:48.931Z,9.50
2019-02-04T10:20:17.713Z,6.72
2019-02-04T10:22:46.471Z,7.25
2019-02-04T10:25:17.947Z,13.00
2019-02-04T10:27:46.721Z,9.95
2019-02-04T10:30:17.824Z,10.23
2019-02-04T10:32:46.713Z,13.32
2019-02-04T10:35:17.184Z,8.45
2019-02-04T10:37:46.701Z,6.62
2019-02-04T10:40:19.709Z,10.45
2019-02-04T10:42:48.458Z,10.35
2019-02-04T10:45:17.766Z,10.10
2019-02-04T10:47:46.564Z,11.20
2019-02-04T10:50:26.418Z,7.67
2019-02-04T10:52:55.183Z,13.18
2019-02-04T10:55:24.023Z,9.43
2019-02-04T10:57:52.809Z,9.03
2019-02-04T11:00:23.500Z,7.45
2019-02-04T11:02:52.301Z,10.93
2019-02-04T11:05:23.516Z,9.15
2019-02-04T11:07:52.449Z,11.75
2019-02-04T11:10:23.487Z,12.33
2019-02-04T11:12:52.338Z,9.88
2019-02-04T11:15:22.345Z,11.70
2019-02-04T11:17:52.826Z,11.20
2019-02-04T11:20:23.766Z,15.43
2019-02-04T11:22:52.689Z,13.22
2019-02-04T11:25:21.506Z,14.63
2019-02-04T11:27:50.361Z,15.05
2019-02-04T11:30:30.764Z,16.15
2019-02-04T11:32:59.756Z,13.43
2019-02-04T11:35:28.610Z,18.45
2019-02-04T11:37:57.568Z,18.10
2019-02-04T11:40:29.983Z,15.43
2019-02-04T11:42:58.785Z,13.50
2019-02-04T11:45:28.943Z,15.28
2019-02-04T11:47:57.878Z,17.48
2019-02-04T11:50:26.726Z,15.15
2019-02-04T11:52:55.518Z,18.77
2019-02-04T11:55:24.721Z,19.12
2019-02-04T11:57:53.534Z,16.45
2019-02-04T12:00:24.514Z,15.83
2019-02-04T12:02:53.879Z,16.93
2019-02-04T12:05:22.775Z,16.55
2019-02-04T12:07:51.619Z,17.52
2019-02-04T12:10:25.742Z,20.10
2019-02-04T12:12:54.730Z,19.92
2019-02-04T12:15:23.718Z,19.85
2019-02-04T12:17:52.495Z,17.45
2019-02-04T12:20:21.311Z,21.35
2019-02-04T12:22:50.060Z,20.80
2019-02-04T12:25:22.743Z,21.37
2019-02-04T12:27:51.650Z,22.85
2019-02-04T12:30:23.022Z,21.80
2019-02-04T12:32:51.767Z,21.15
2019-02-04T12:35:20.558Z,20.82
2019-02-04T12:37:49.367Z,20.02
2019-02-04T12:40:18.164Z,22.27
2019-02-04T12:42:47.016Z,21.60
2019-02-04T12:45:18.630Z,24.75
2019-02-04T12:47:48.295Z,19.17
2019-02-04T12:50:18.907Z,23.20
2019-02-04T12:52:50.570Z,20.27
2019-02-04T12:55:22.209Z,28.30
2019-02-04T12:57:50.907Z,22.20
2019-02-04T13:00:21.525Z,20.92
2019-02-04T13:02:50.289Z,23.12
2019-02-04T13:05:27.530Z,22.40
2019-02-04T13:07:56.298Z,23.27
2019-02-04T13:10:25.429Z,24.72
2019-02-04T13:12:54.216Z,24.00
2019-02-04T13:15:23.066Z,20.35
2019-02-04T13:17:51.818Z,22.48
2019-02-04T13:20:20.654Z,22.45
2019-02-04T13:22:49.378Z,21.73
2019-02-04T13:25:20.703Z,21.45
2019-02-04T13:27:49.544Z,20.17
2019-02-04T13:30:20.656Z,20.23
2019-02-04T13:32:49.506Z,23.67
2019-02-04T13:35:18.448Z,28.15
2019-02-04T13:37:47.379Z,21.30
2019-02-04T13:40:22.146Z,19.45
2019-02-04T13:42:52.713Z,22.82
2019-02-04T13:45:21.431Z,23.60
2019-02-04T13:47:50.226Z,22.98
2019-02-04T13:50:19.978Z,22.52
2019-02-04T13:52:48.899Z,20.25
2019-02-04T13:55:20.420Z,19.95
2019-02-04T13:57:49.310Z,19.50
2019-02-04T14:00:19.256Z,19.45
2019-02-04T14:02:58.542Z,26.12
2019-02-04T14:05:18.410Z,20.48
2019-02-04T14:07:47.147Z,22.93
2019-02-04T14:10:28.421Z,23.75
2019-02-04T14:12:57.178Z,20.65
2019-02-04T14:15:26.092Z,21.12
2019-02-04T14:17:56.694Z,21.10
2019-02-04T14:20:25.625Z,22.27
2019-02-04T14:22:54.550Z,23.55
2019-02-04T14:25:23.300Z,23.70
2019-02-04T14:27:54.382Z,24.80
2019-02-04T14:30:28.341Z,21.70
2019-02-04T14:32:57.183Z,21.82
2019-02-04T14:35:25.954Z,21.45
2019-02-04T14:37:54.907Z,22.80
2019-02-04T14:40:23.850Z,24.25
2019-02-04T14:42:56.227Z,21.77
2019-02-04T14:46:06.236Z,21.15
2019-02-04T14:49:31.547Z,19.87
2019-02-04T14:52:28.624Z,22.20
2019-02-04T14:55:46.794Z,20.08
2019-02-04T14:58:23.997Z,19.48
2019-02-04T15:01:29.137Z,19.10
2019-02-04T15:04:48.517Z,20.88
2019-02-04T15:07:56.098Z,20.05
2019-02-04T15:10:59.092Z,19.40
2019-02-04T15:13:50.088Z,19.80
2019-02-04T15:16:47.154Z,18.75
2019-02-04T15:20:08.266Z,21.20
2019-02-04T15:23:15.554Z,17.32
2019-02-04T15:26:01.969Z,17.52
2019-02-04T15:29:11.262Z,19.30
2019-02-04T15:32:05.714Z,18.20
2019-02-04T15:35:16.230Z,19.42
2019-02-04T15:38:22.318Z,20.23
2019-02-04T15:41:13.927Z,20.37
2019-02-04T15:43:56.530Z,17.30
2019-02-04T15:47:10.191Z,18.02
2019-02-04T15:50:35.865Z,16.90
2019-02-04T15:53:06.230Z,20.97
2019-02-04T15:55:35.247Z,18.80
2019-02-04T15:58:04.160Z,19.05
2019-02-04T16:00:32.893Z,19.82
2019-02-04T16:03:02.092Z,19.07
2019-02-04T16:05:30.994Z,21.95
2019-02-04T16:08:02.305Z,19.12
2019-02-04T16:10:31.046Z,24.45
2019-02-04T16:12:59.768Z,18.77
2019-02-04T16:15:28.481Z,19.95
2019-02-04T16:17:57.685Z,20.12
2019-02-04T16:20:26.502Z,22.27
2019-02-04T16:23:14.527Z,21.52
2019-02-04T16:25:43.274Z,23.25
2019-02-04T16:28:12.059Z,23.05
2019-02-04T16:30:40.831Z,22.10
2019-02-04T16:33:09.548Z,22.73
2019-02-04T16:35:38.338Z,20.88
2019-02-04T16:38:07.838Z,26.52
2019-02-04T16:40:36.638Z,25.60
2019-02-04T16:43:05.453Z,24.98
2019-02-04T16:45:36.890Z,27.22
2019-02-04T16:48:05.614Z,26.35
2019-02-04T16:50:34.334Z,23.60
2019-02-04T16:53:10.679Z,26.48
2019-02-04T16:55:33.662Z,24.32
2019-02-04T16:58:02.483Z,26.97
2019-02-04T17:00:31.961Z,29.07
2019-02-04T17:03:00.702Z,28.57
2019-02-04T17:05:29.538Z,26.55
2019-02-04T17:07:58.413Z,35.98
2019-02-04T17:10:27.326Z,29.07
2019-02-04T17:12:56.072Z,29.55
2019-02-04T17:15:27.751Z,35.30
2019-02-04T17:17:56.531Z,31.25
2019-02-04T17:20:30.535Z,32.58
2019-02-04T17:22:59.408Z,33.53
2019-02-04T17:25:28.333Z,36.03
2019-02-04T17:27:57.234Z,33.53
2019-02-04T17:30:26.050Z,36.28
2019-02-04T17:32:55.103Z,34.20
2019-02-04T17:35:24.385Z,31.97
2019-02-04T17:37:53.141Z,35.15
2019-02-04T17:40:22.134Z,34.92
2019-02-04T17:42:51.270Z,36.40
2019-02-04T17:45:20.118Z,39.85
2019-02-04T17:47:49.464Z,40.73
2019-02-04T17:50:19.101Z,38.75
2019-02-04T17:52:47.857Z,34.90
2019-02-04T17:55:18.688Z,36.00
2019-02-04T17:57:48.471Z,37.00
2019-02-04T18:00:27.342Z,36.05
2019-02-04T18:02:56.200Z,35.58
2019-02-04T18:05:24.994Z,35.88
2019-02-04T18:07:53.848Z,39.38
2019-02-04T18:10:22.634Z,34.45
2019-02-04T18:12:51.846Z,29.32
2019-02-04T18:15:20.718Z,30.35
2019-02-04T18:17:49.470Z,34.90
2019-02-04T18:20:18.337Z,33.73
2019-02-04T18:22:47.202Z,34.45
2019-02-04T18:25:16.131Z,35.28
2019-02-04T18:27:44.920Z,35.60
2019-02-04T18:30:16.116Z,35.13
2019-02-04T18:32:45.067Z,33.30
2019-02-04T18:35:15.563Z,35.48
2019-02-04T18:37:44.351Z,37.40
2019-02-04T18:40:14.248Z,33.85
2019-02-04T18:42:43.327Z,34.03
2019-02-04T18:45:17.479Z,36.70
2019-02-04T18:47:46.402Z,34.85
2019-02-04T18:50:15.714Z,38.58
2019-02-04T18:52:44.934Z,40.60
2019-02-04T18:55:16.631Z,34.98
2019-02-04T18:57:45.597Z,38.15
2019-02-04T19:00:17.239Z,37.42
2019-02-04T19:02:48.986Z,41.63
2019-02-04T19:05:18.116Z,37.70
2019-02-04T19:07:46.959Z,40.75
2019-02-04T19:10:17.230Z,41.95
2019-02-04T19:12:45.990Z,38.65
2019-02-04T19:15:16.718Z,39.00
2019-02-04T19:17:45.546Z,39.65
2019-02-04T19:20:16.658Z,46.70
2019-02-04T19:22:45.455Z,42.13
2019-02-04T19:25:15.078Z,44.20
2019-02-04T19:27:43.995Z,45.10
2019-02-04T19:30:19.511Z,44.33
2019-02-04T19:32:48.478Z,43.87
2019-02-04T19:35:17.526Z,47.45
2019-02-04T19:37:46.354Z,44.30
2019-02-04T19:40:15.305Z,43.35
2019-02-04T19:42:44.071Z,45.92
2019-02-04T19:45:15.385Z,42.85
2019-02-04T19:47:44.187Z,47.98
2019-02-04T19:50:19.599Z,48.15
2019-02-04T19:52:48.422Z,44.38
2019-02-04T19:55:17.150Z,48.25
2019-02-04T19:57:45.867Z,48.20
2019-02-04T20:00:20.509Z,51.80
2019-02-04T20:03:00.125Z,51.98
2019-02-04T20:05:29.095Z,52.90
2019-02-04T20:07:57.810Z,55.45
2019-02-04T20:10:27.246Z,53.17
2019-02-04T20:12:56.007Z,50.63
2019-02-04T20:15:26.776Z,54.55
2019-02-04T20:17:55.699Z,53.60
2019-02-04T20:20:24.947Z,52.30
2019-02-04T20:22:53.880Z,56.53
2019-02-04T20:25:24.565Z,60.12
2019-02-04T20:27:53.308Z,58.30
2019-02-04T20:30:25.195Z,58.23
2019-02-04T20:32:53.970Z,56.53
2019-02-04T20:35:22.690Z,59.20
2019-02-04T20:37:51.470Z,54.77
2019-02-04T20:40:21.043Z,57.33
2019-02-04T20:42:49.979Z,60.10
2019-02-04T20:45:19.022Z,60.85
2019-02-04T20:47:48.095Z,61.20
2019-02-04T20:50:19.819Z,65.90
2019-02-04T20:52:48.602Z,67.42
2019-02-04T20:55:17.619Z,61.98
2019-02-04T20:57:46.325Z,72.47
2019-02-04T21:00:18.262Z,65.60
2019-02-04T21:02:46.989Z,68.87
2019-02-04T21:05:15.986Z,73.72
2019-02-04T21:07:44.812Z,67.62
2019-02-04T21:10:16.020Z,69.25
2019-02-04T21:12:44.886Z,71.62
2019-02-04T21:15:14.443Z,64.45
2019-02-04T21:17:43.380Z,67.82
2019-02-04T21:20:14.948Z,63.17
2019-02-04T21:22:43.766Z,68.80
2019-02-04T21:25:12.508Z,69.53
2019-02-04T21:27:41.347Z,62.67
2019-02-04T21:30:22.250Z,64.70
2019-02-04T21:32:51.026Z,66.55
2019-02-04T21:35:19.778Z,71.35
2019-02-04T21:37:48.566Z,71.20
2019-02-04T21:40:17.447Z,68.05
2019-02-04T21:42:48.924Z,63.08
2019-02-04T21:45:19.236Z,72.97
2019-02-04T21:47:47.982Z,69.97
2019-02-04T21:50:18.456Z,75.30
2019-02-04T21:52:47.321Z,73.97
2019-02-04T21:55:16.294Z,70.30
2019-02-04T21:57:47.648Z,67.85
2019-02-04T22:00:18.949Z,66.80
2019-02-04T22:02:47.760Z,71.45
2019-02-04T22:05:17.321Z,65.40
2019-02-04T22:07:46.966Z,65.40
2019-02-04T22:10:19.510Z,67.32
2019-02-04T22:12:48.306Z,64.15
2019-02-04T22:15:19.895Z,60.88
2019-02-04T22:17:48.820Z,61.65
2019-02-04T22:20:18.087Z,65.42
2019-02-04T22:22:47.035Z,59.77
2019-02-04T22:25:19.718Z,65.03
2019-02-04T22:27:47.499Z,63.40
2019-02-04T22:30:20.947Z,67.87
2019-02-04T22:32:49.783Z,62.67
2019-02-04T22:35:18.612Z,65.75
2019-02-04T22:37:47.350Z,65.35
2019-02-04T22:40:19.036Z,63.25
2019-02-04T22:42:47.890Z,63.60
2019-02-04T22:45:16.742Z,60.55
2019-02-04T22:47:45.478Z,60.10
2019-02-04T22:50:25.952Z,62.13
2019-02-04T22:52:54.670Z,60.58
2019-02-04T22:55:31.708Z,64.53
2019-02-04T22:57:54.260Z,62.62
2019-02-04T23:00:50.900Z,58.17
2019-02-04T23:03:21.120Z,61.45
2019-02-04T23:05:49.910Z,69.50
2019-02-04T23:08:20.831Z,63.98
2019-02-04T23:10:50.447Z,63.17
2019-02-04T23:13:19.203Z,68.47
2019-02-04T23:15:48.099Z,65.08
2019-02-04T23:18:17.002Z,65.28
2019-02-04T23:20:45.882Z,64.20
2019-02-04T23:23:14.602Z,63.05
2019-02-04T23:25:43.935Z,62.10
2019-02-04T23:28:12.786Z,65.80
2019-02-04T23:30:41.642Z,68.90
2019-02-04T23:33:10.370Z,62.33
2019-02-04T23:35:39.126Z,66.12
2019-02-04T23:38:07.937Z,65.95
2019-02-04T23:40:36.660Z,63.05
2019-02-04T23:43:05.498Z,63.73
2019-02-04T23:45:34.342Z,63.52
2019-02-04T23:48:03.190Z,64.65
2019-02-04T23:50:31.962Z,64.07
2019-02-04T23:53:00.670Z,65.95
2019-02-04T23:55:29.485Z,68.75
2019-02-04T23:57:58.333Z,61.40
